MSC Annamaria — H3HN — position and weather

sailwx.info

Track history (hours):
 
Tides and Currents Weather Stations Pressure Air Temp Water Temp Dewpoint Dewpoint Depression Visibility Wind Speed Wind Dir Waves Ship Positions

MSC Annamaria

Last reported at 2014-Aug-01 09:34 UTC. Time now 2014-Aug-01 12:02 UTC.
Position N 31°55' E 030°27'.

Length 188 m; draft 9.1 m.

Type: Ship (hazmat cat A). MMSI: 353852000.

Date/timePositionNaut miles runAvg speedWind from/ knotsBaromVisibWave heightAir tempDewpointWater temp
2014-Aug-01 09:34N 31°55' E 030°27'2311.3
2014-Aug-01 07:34N 32°11' E 030°47'1411.6
2014-Aug-01 06:22N 32°21' E 030°57'2111.7
2014-Aug-01 04:31N 32°38' E 031°13'1111.8
2014-Aug-01 03:33N 32°47' E 031°22'1211.7
2014-Aug-01 02:34N 32°56' E 031°31'1211.7
2014-Aug-01 01:34N 33°05' E 031°40'1311.9
2014-Aug-01 00:26N 33°15' E 031°50'1112.1
2014-Jul-31 23:34N 33°23' E 031°58'1212.2
2014-Jul-31 22:33N 33°33' E 032°07'1212.1
2014-Jul-31 21:34N 33°42' E 032°16'1212.2
2014-Jul-31 20:33N 33°52' E 032°26'1212.3
2014-Jul-31 19:33N 34°01' E 032°35'1212.1
2014-Jul-31 18:34N 34°11' E 032°44'1212.2
2014-Jul-31 17:33N 34°20' E 032°54'1212.2
2014-Jul-31 16:33N 34°30' E 033°03'10 9.5
2014-Jul-31 15:33N 34°39' E 033°02'1 0.3
2014-Jul-31 13:32N 34°39' E 033°01'0 0.0
2014-Jul-31 12:33N 34°39' E 033°01'0 0.0
2014-Jul-31 11:31N 34°39' E 033°01'0 0.0
2014-Jul-31 10:32N 34°39' E 033°01'0 0.0
2014-Jul-31 09:32N 34°39' E 033°01'0 0.0
2014-Jul-31 08:33N 34°39' E 033°01'0 0.0
2014-Jul-31 07:33N 34°39' E 033°01'0 0.0
2014-Jul-31 06:21N 34°39' E 033°01'0 0.0
2014-Jul-31 05:31N 34°39' E 033°01'0 0.0
2014-Jul-31 04:33N 34°39' E 033°01'0 0.3
2014-Jul-31 03:33N 34°39' E 033°01'3 2.4
2014-Jul-31 02:27N 34°40' E 033°04'0 0.1
2014-Jul-31 01:13N 34°40' E 033°04'0 0.1
2014-Jul-31 00:09N 34°40' E 033°04'0 0.1
2014-Jul-30 23:30N 34°40' E 033°04'0 0.0
2014-Jul-30 19:14N 34°40' E 033°04'0 0.1
2014-Jul-30 18:33N 34°40' E 033°04'7 7.3
2014-Jul-30 17:33N 34°33' E 033°04'1312.8
2014-Jul-30 16:33N 34°33' E 032°48'1413.7
2014-Jul-30 15:33N 34°37' E 032°33'21613.1
2014-Jul-29 23:07N 35°38' E 028°19'3312.8
2014-Jul-29 20:33N 35°48' E 027°41'1313.1
2014-Jul-29 19:33N 35°55' E 027°27'5413.2
2014-Jul-29 15:26N 36°08' E 026°21'2613.1
2014-Jul-29 13:25N 36°09' E 025°49'1112.8
2014-Jul-29 12:33N 36°09' E 025°35'1312.9
2014-Jul-29 11:33N 36°09' E 025°19'1313.2
2014-Jul-29 10:33N 36°14' E 025°04'1313.2
2014-Jul-29 09:33N 36°20' E 024°49'1313.0
2014-Jul-29 08:33N 36°26' E 024°35'1312.9
2014-Jul-29 07:33N 36°32' E 024°21'1312.9
2014-Jul-29 06:33N 36°42' E 024°11'1312.9
2014-Jul-29 05:33N 36°54' E 024°05'1313.0
2014-Jul-29 04:33N 37°06' E 023°58'1313.2
2014-Jul-29 03:33N 37°19' E 023°53'1813.2
2014-Jul-29 02:10N 37°36' E 023°44'813.4
2014-Jul-29 01:33N 37°43' E 023°40'1312.9
2014-Jul-29 00:33N 37°56' E 023°37'2 1.6
2014-Jul-28 23:33N 37°57' E 023°36'0 0.0
2014-Jul-28 22:33N 37°57' E 023°36'0 0.0
2014-Jul-28 21:28N 37°57' E 023°36'0 0.0
2014-Jul-28 20:32N 37°57' E 023°36'0 0.0
2014-Jul-28 19:33N 37°57' E 023°36'0 0.0
2014-Jul-28 18:33N 37°57' E 023°36'0 0.0
2014-Jul-28 17:33N 37°57' E 023°36'0 0.0
2014-Jul-28 16:33N 37°57' E 023°36'0 0.0
2014-Jul-28 15:33N 37°57' E 023°36'0 0.0
2014-Jul-28 14:32N 37°57' E 023°36'0 0.0
2014-Jul-28 13:30N 37°57' E 023°36'0 0.0
2014-Jul-28 12:26N 37°57' E 023°36'0 0.0
2014-Jul-28 11:31N 37°57' E 023°36'0 0.0
2014-Jul-28 10:33N 37°57' E 023°36'0 0.0
2014-Jul-28 09:32N 37°57' E 023°36'0 0.0
2014-Jul-28 08:33N 37°57' E 023°36'0 0.0
2014-Jul-28 07:33N 37°57' E 023°36'0 0.0
2014-Jul-28 06:27N 37°57' E 023°36'0 0.0
2014-Jul-28 05:32N 37°57' E 023°36'0 0.0
2014-Jul-28 04:33N 37°57' E 023°36'0 0.0
2014-Jul-28 03:30N 37°57' E 023°36'0 0.0
2014-Jul-28 02:33N 37°57' E 023°36'0 0.0
2014-Jul-28 01:31N 37°57' E 023°36'0 0.0
2014-Jul-28 00:33N 37°57' E 023°36'0 0.0
2014-Jul-27 23:33N 37°57' E 023°36'0 0.0
2014-Jul-27 22:27N 37°57' E 023°36'0 0.0
2014-Jul-27 21:31N 37°57' E 023°36'0 0.0
2014-Jul-27 20:33N 37°57' E 023°36'0 0.0
2014-Jul-27 19:31N 37°57' E 023°36'4 4.2
2014-Jul-27 18:34N 37°53' E 023°38'1313.1
2014-Jul-27 17:33N 37°41' E 023°45'1313.4
2014-Jul-27 16:33N 37°28' E 023°42'1414.3
2014-Jul-27 15:33N 37°15' E 023°36'1414.1
2014-Jul-27 14:34N 37°03' E 023°27'1513.7
2014-Jul-27 13:30N 36°49' E 023°21'1413.7
2014-Jul-27 12:28N 36°35' E 023°17'1212.6
2014-Jul-27 11:33N 36°24' E 023°13'  
Track history (hours):
 
Tides and Currents Weather Stations Pressure Air Temp Water Temp Dewpoint Dewpoint Depression Visibility Wind Speed Wind Dir Waves Ship Positions

MSC Annamaria

Last reported at 2014-Aug-01 09:34 UTC. Time now 2014-Aug-01 12:02 UTC.
Position N 31°55' E 030°27'.

Length 188 m; draft 9.1 m.

Type: Ship (hazmat cat A). MMSI: 353852000.

Date/timePositionNaut miles runAvg speedWind from/ knotsBaromVisibWave heightAir tempDewpointWater temp
2014-Aug-01 09:34N 31°55' E 030°27'2311.3
2014-Aug-01 07:34N 32°11' E 030°47'1411.6
2014-Aug-01 06:22N 32°21' E 030°57'2111.7
2014-Aug-01 04:31N 32°38' E 031°13'1111.8
2014-Aug-01 03:33N 32°47' E 031°22'1211.7
2014-Aug-01 02:34N 32°56' E 031°31'1211.7
2014-Aug-01 01:34N 33°05' E 031°40'1311.9
2014-Aug-01 00:26N 33°15' E 031°50'1112.1
2014-Jul-31 23:34N 33°23' E 031°58'1212.2
2014-Jul-31 22:33N 33°33' E 032°07'1212.1
2014-Jul-31 21:34N 33°42' E 032°16'1212.2
2014-Jul-31 20:33N 33°52' E 032°26'1212.3
2014-Jul-31 19:33N 34°01' E 032°35'1212.1
2014-Jul-31 18:34N 34°11' E 032°44'1212.2
2014-Jul-31 17:33N 34°20' E 032°54'1212.2
2014-Jul-31 16:33N 34°30' E 033°03'10 9.5
2014-Jul-31 15:33N 34°39' E 033°02'1 0.3
2014-Jul-31 13:32N 34°39' E 033°01'0 0.0
2014-Jul-31 12:33N 34°39' E 033°01'0 0.0
2014-Jul-31 11:31N 34°39' E 033°01'0 0.0
2014-Jul-31 10:32N 34°39' E 033°01'0 0.0
2014-Jul-31 09:32N 34°39' E 033°01'0 0.0
2014-Jul-31 08:33N 34°39' E 033°01'0 0.0
2014-Jul-31 07:33N 34°39' E 033°01'0 0.0
2014-Jul-31 06:21N 34°39' E 033°01'0 0.0
2014-Jul-31 05:31N 34°39' E 033°01'0 0.0
2014-Jul-31 04:33N 34°39' E 033°01'0 0.3
2014-Jul-31 03:33N 34°39' E 033°01'3 2.4
2014-Jul-31 02:27N 34°40' E 033°04'0 0.1
2014-Jul-31 01:13N 34°40' E 033°04'0 0.1
2014-Jul-31 00:09N 34°40' E 033°04'0 0.1
2014-Jul-30 23:30N 34°40' E 033°04'0 0.0
2014-Jul-30 19:14N 34°40' E 033°04'0 0.1
2014-Jul-30 18:33N 34°40' E 033°04'7 7.3
2014-Jul-30 17:33N 34°33' E 033°04'1312.8
2014-Jul-30 16:33N 34°33' E 032°48'1413.7
2014-Jul-30 15:33N 34°37' E 032°33'21613.1
2014-Jul-29 23:07N 35°38' E 028°19'3312.8
2014-Jul-29 20:33N 35°48' E 027°41'1313.1
2014-Jul-29 19:33N 35°55' E 027°27'5413.2
2014-Jul-29 15:26N 36°08' E 026°21'2613.1
2014-Jul-29 13:25N 36°09' E 025°49'1112.8
2014-Jul-29 12:33N 36°09' E 025°35'1312.9
2014-Jul-29 11:33N 36°09' E 025°19'1313.2
2014-Jul-29 10:33N 36°14' E 025°04'1313.2
2014-Jul-29 09:33N 36°20' E 024°49'1313.0
2014-Jul-29 08:33N 36°26' E 024°35'1312.9
2014-Jul-29 07:33N 36°32' E 024°21'1312.9
2014-Jul-29 06:33N 36°42' E 024°11'1312.9
2014-Jul-29 05:33N 36°54' E 024°05'1313.0
2014-Jul-29 04:33N 37°06' E 023°58'1313.2
2014-Jul-29 03:33N 37°19' E 023°53'1813.2
2014-Jul-29 02:10N 37°36' E 023°44'813.4
2014-Jul-29 01:33N 37°43' E 023°40'1312.9
2014-Jul-29 00:33N 37°56' E 023°37'2 1.6
2014-Jul-28 23:33N 37°57' E 023°36'0 0.0
2014-Jul-28 22:33N 37°57' E 023°36'0 0.0
2014-Jul-28 21:28N 37°57' E 023°36'0 0.0
2014-Jul-28 20:32N 37°57' E 023°36'0 0.0
2014-Jul-28 19:33N 37°57' E 023°36'0 0.0
2014-Jul-28 18:33N 37°57' E 023°36'0 0.0
2014-Jul-28 17:33N 37°57' E 023°36'0 0.0
2014-Jul-28 16:33N 37°57' E 023°36'0 0.0
2014-Jul-28 15:33N 37°57' E 023°36'0 0.0
2014-Jul-28 14:32N 37°57' E 023°36'0 0.0
2014-Jul-28 13:30N 37°57' E 023°36'0 0.0
2014-Jul-28 12:26N 37°57' E 023°36'0 0.0
2014-Jul-28 11:31N 37°57' E 023°36'0 0.0
2014-Jul-28 10:33N 37°57' E 023°36'0 0.0
2014-Jul-28 09:32N 37°57' E 023°36'0 0.0
2014-Jul-28 08:33N 37°57' E 023°36'0 0.0
2014-Jul-28 07:33N 37°57' E 023°36'0 0.0
2014-Jul-28 06:27N 37°57' E 023°36'0 0.0
2014-Jul-28 05:32N 37°57' E 023°36'0 0.0
2014-Jul-28 04:33N 37°57' E 023°36'0 0.0
2014-Jul-28 03:30N 37°57' E 023°36'0 0.0
2014-Jul-28 02:33N 37°57' E 023°36'0 0.0
2014-Jul-28 01:31N 37°57' E 023°36'0 0.0
2014-Jul-28 00:33N 37°57' E 023°36'0 0.0
2014-Jul-27 23:33N 37°57' E 023°36'0 0.0
2014-Jul-27 22:27N 37°57' E 023°36'0 0.0
2014-Jul-27 21:31N 37°57' E 023°36'0 0.0
2014-Jul-27 20:33N 37°57' E 023°36'0 0.0
2014-Jul-27 19:31N 37°57' E 023°36'4 4.2
2014-Jul-27 18:34N 37°53' E 023°38'1313.1
2014-Jul-27 17:33N 37°41' E 023°45'1313.4
2014-Jul-27 16:33N 37°28' E 023°42'1414.3
2014-Jul-27 15:33N 37°15' E 023°36'1414.1
2014-Jul-27 14:34N 37°03' E 023°27'1513.7
2014-Jul-27 13:30N 36°49' E 023°21'1413.7
2014-Jul-27 12:28N 36°35' E 023°17'1212.6
2014-Jul-27 11:33N 36°24' E 023°13'  

Dump ship's entire track history